createdAt,value
2024-01-28T00:00:50.185Z,0.82
2024-01-28T00:04:53.736Z,0.68
2024-01-28T00:08:57.736Z,0.70
2024-01-28T00:13:00.455Z,0.60
2024-01-28T00:17:03.172Z,0.80
2024-01-28T00:21:06.587Z,0.60
2024-01-28T00:25:11.013Z,0.88
2024-01-28T00:29:13.711Z,0.80
2024-01-28T00:33:16.539Z,0.75
2024-01-28T00:37:19.391Z,0.70
2024-01-28T00:41:29.911Z,0.60
2024-01-28T00:45:32.954Z,0.63
2024-01-28T00:49:35.807Z,0.80
2024-01-28T00:53:38.577Z,0.75
2024-01-28T00:57:42.719Z,1.05
2024-01-28T01:01:45.445Z,1.00
2024-01-28T01:05:48.124Z,0.77
2024-01-28T01:09:50.847Z,0.60
2024-01-28T01:13:54.907Z,0.68
2024-01-28T01:17:57.942Z,0.88
2024-01-28T01:22:02.763Z,0.95
2024-01-28T01:26:05.801Z,0.55
2024-01-28T01:30:11.026Z,0.95
2024-01-28T01:34:13.913Z,0.95
2024-01-28T01:38:16.739Z,0.90
2024-01-28T01:42:19.431Z,0.85
2024-01-28T01:46:23.877Z,0.90
2024-01-28T01:50:26.770Z,0.80
2024-01-28T01:54:29.605Z,1.05
2024-01-28T01:58:32.504Z,0.80
2024-01-28T02:02:37.124Z,0.70
2024-01-28T02:06:39.895Z,1.05
2024-01-28T02:10:42.687Z,0.95
2024-01-28T02:14:46.391Z,1.00
2024-01-28T02:18:50.574Z,0.73
2024-01-28T02:22:53.334Z,0.75
2024-01-28T02:26:57.394Z,0.70
2024-01-28T02:31:00.138Z,1.27
2024-01-28T02:35:02.968Z,0.70
2024-01-28T02:39:05.748Z,1.23
2024-01-28T02:43:10.180Z,0.90
2024-01-28T02:47:12.968Z,1.00
2024-01-28T02:51:15.730Z,0.98
2024-01-28T02:55:18.417Z,0.95
2024-01-28T02:59:22.496Z,1.10
2024-01-28T03:03:25.309Z,0.80
2024-01-28T03:07:28.184Z,1.00
2024-01-28T03:11:30.956Z,1.20
2024-01-28T03:15:35.012Z,1.00
2024-01-28T03:19:38.044Z,1.08
2024-01-28T03:23:40.723Z,1.02
2024-01-28T03:27:43.391Z,1.05
2024-01-28T03:31:47.808Z,1.15
2024-01-28T03:35:50.441Z,0.85
2024-01-28T03:39:53.300Z,1.10
2024-01-28T03:43:56.316Z,1.00
2024-01-28T03:48:00.433Z,0.70
2024-01-28T03:52:03.191Z,0.90
2024-01-28T03:56:08.322Z,1.20
2024-01-28T04:00:13.787Z,0.82
2024-01-28T04:04:18.014Z,0.85
2024-01-28T04:08:20.725Z,0.60
2024-01-28T04:12:24.863Z,0.80
2024-01-28T04:16:27.736Z,0.80
2024-01-28T04:20:31.734Z,0.50
2024-01-28T04:24:34.448Z,0.50
2024-01-28T04:28:37.177Z,0.40
2024-01-28T04:32:39.858Z,0.32
2024-01-28T04:36:43.949Z,0.30
2024-01-28T04:40:46.676Z,0.60
2024-01-28T04:44:49.383Z,0.22
2024-01-28T04:48:52.153Z,0.10
2024-01-28T04:52:56.260Z,0.20
2024-01-28T04:56:59.815Z,0.10
2024-01-28T05:01:02.666Z,0.10
2024-01-28T05:05:06.085Z,0.20
2024-01-28T05:09:11.739Z,0.10
2024-01-28T05:13:14.489Z,0.00
2024-01-28T05:17:17.167Z,0.10
2024-01-28T05:21:20.176Z,0.10
2024-01-28T05:25:24.206Z,0.10
2024-01-28T05:29:26.914Z,0.10
2024-01-28T05:33:29.996Z,0.10
2024-01-28T05:37:32.941Z,0.05
2024-01-28T05:41:36.909Z,0.00
2024-01-28T05:45:39.623Z,0.30
2024-01-28T05:49:42.609Z,0.10
2024-01-28T05:53:45.384Z,0.13
2024-01-28T05:57:49.463Z,0.13
2024-01-28T06:01:52.166Z,0.10
2024-01-28T06:05:54.884Z,0.10
2024-01-28T06:09:58.413Z,0.10
2024-01-28T06:14:02.451Z,0.20
2024-01-28T06:18:05.476Z,0.10
2024-01-28T06:22:08.492Z,0.00
2024-01-28T06:26:11.170Z,0.00
2024-01-28T06:30:16.203Z,0.10
2024-01-28T06:34:19.684Z,0.10
2024-01-28T06:38:22.544Z,0.00
2024-01-28T06:42:26.171Z,0.10
2024-01-28T06:46:30.206Z,0.10
2024-01-28T06:50:32.871Z,0.10
2024-01-28T06:56:58.164Z,0.50
2024-01-28T07:01:01.021Z,0.60
2024-01-28T07:05:03.815Z,1.85
2024-01-28T07:09:06.998Z,3.05
2024-01-28T07:13:11.113Z,2.28
2024-01-28T07:17:13.826Z,3.33
2024-01-28T07:21:16.860Z,3.78
2024-01-28T07:37:24.615Z,8.02
2024-01-28T07:41:29.889Z,9.45
2024-01-28T07:45:32.586Z,10.80
2024-01-28T07:49:35.428Z,10.25
2024-01-28T07:53:39.545Z,9.07
2024-01-28T07:57:42.393Z,8.77
2024-01-28T08:01:45.199Z,8.23
2024-01-28T08:05:47.940Z,8.25
2024-01-28T08:09:52.143Z,8.57
2024-01-28T08:13:54.849Z,7.72
2024-01-28T08:17:57.824Z,8.05
2024-01-28T08:22:00.658Z,8.40
2024-01-28T08:26:04.913Z,9.38
2024-01-28T08:30:09.162Z,8.90
2024-01-28T08:34:12.091Z,6.80
2024-01-28T08:38:14.926Z,7.70
2024-01-28T08:42:20.356Z,7.50
2024-01-28T08:46:23.177Z,8.25
2024-01-28T08:50:25.870Z,6.00
2024-01-28T08:54:28.896Z,6.82
2024-01-28T08:58:33.018Z,6.45
2024-01-28T09:02:37.659Z,7.53
2024-01-28T09:06:40.443Z,4.68
2024-01-28T09:10:43.158Z,6.53
2024-01-28T09:14:47.176Z,6.72
2024-01-28T09:18:49.873Z,6.63
2024-01-28T09:22:53.275Z,7.50
2024-01-28T09:26:56.005Z,5.57
2024-01-28T09:31:00.118Z,5.25
2024-01-28T09:35:03.090Z,3.55
2024-01-28T09:39:06.687Z,6.57
2024-01-28T09:43:20.429Z,5.30
2024-01-28T09:47:25.252Z,8.73
2024-01-28T09:51:28.095Z,9.30
2024-01-28T09:55:31.051Z,9.32
2024-01-28T09:59:36.468Z,8.52
2024-01-28T10:03:40.714Z,29.70
2024-01-28T10:07:44.651Z,11.27
2024-01-28T10:11:47.422Z,6.93
2024-01-28T10:15:56.083Z,9.35
2024-01-28T10:20:00.441Z,4.20
2024-01-28T10:24:03.310Z,4.07
2024-01-28T10:28:06.729Z,4.97
2024-01-28T10:32:09.652Z,5.75
2024-01-28T10:36:14.027Z,4.45
2024-01-28T10:40:17.511Z,3.72
2024-01-28T10:44:22.545Z,3.80
2024-01-28T10:48:26.033Z,5.20
2024-01-28T10:52:33.518Z,5.00
2024-01-28T10:56:37.862Z,4.45
2024-01-28T11:00:42.092Z,5.05
2024-01-28T11:04:44.935Z,4.53
2024-01-28T11:08:48.985Z,5.28
2024-01-28T11:12:51.812Z,5.03
2024-01-28T11:16:54.539Z,5.35
2024-01-28T11:20:57.328Z,4.50
2024-01-28T11:25:01.409Z,4.50
2024-01-28T11:29:07.788Z,4.10
2024-01-28T11:33:13.567Z,4.35
2024-01-28T11:37:22.370Z,3.75
2024-01-28T11:41:28.975Z,3.80
2024-01-28T11:45:31.954Z,3.88
2024-01-28T11:49:35.045Z,3.75
2024-01-28T11:53:37.726Z,3.85
2024-01-28T11:57:42.427Z,4.28
2024-01-28T12:01:45.212Z,3.83
2024-01-28T12:05:48.020Z,4.38
2024-01-28T12:09:51.684Z,5.00
2024-01-28T12:13:55.809Z,2.90
2024-01-28T12:17:59.508Z,4.40
2024-01-28T12:22:02.395Z,4.32
2024-01-28T12:26:05.404Z,4.68
2024-01-28T12:30:10.992Z,4.45
2024-01-28T12:34:16.603Z,4.45
2024-01-28T12:38:19.273Z,3.95
2024-01-28T12:42:21.977Z,3.83
2024-01-28T12:46:26.257Z,4.55
2024-01-28T12:50:28.924Z,3.50
2024-01-28T12:54:31.771Z,4.22
2024-01-28T12:58:34.626Z,4.45
2024-01-28T13:02:38.665Z,4.30
2024-01-28T13:06:41.493Z,3.75
2024-01-28T13:10:44.200Z,3.25
2024-01-28T13:14:46.969Z,4.80
2024-01-28T13:18:51.355Z,4.38
2024-01-28T13:22:54.143Z,3.92
2024-01-28T13:26:57.309Z,3.50
2024-01-28T13:31:00.182Z,4.68
2024-01-28T13:35:07.495Z,4.15
2024-01-28T13:39:12.057Z,4.78
2024-01-28T13:43:14.769Z,3.50
2024-01-28T13:47:17.800Z,3.65
2024-01-28T13:51:21.818Z,3.75
2024-01-28T13:55:24.511Z,3.88
2024-01-28T13:59:27.333Z,4.93
2024-01-28T14:03:30.079Z,4.05
2024-01-28T14:07:34.195Z,4.10
2024-01-28T14:11:37.991Z,3.65
2024-01-28T14:15:40.778Z,3.45
2024-01-28T14:19:43.528Z,3.80
2024-01-28T14:23:47.549Z,3.28
2024-01-28T14:27:50.265Z,3.17
2024-01-28T14:31:52.928Z,3.80
2024-01-28T14:35:55.617Z,3.05
2024-01-28T14:39:59.701Z,2.92
2024-01-28T14:44:02.409Z,3.00
2024-01-28T14:48:05.775Z,2.40
2024-01-28T14:52:08.659Z,2.70
2024-01-28T14:56:12.896Z,2.70
2024-01-28T15:00:18.456Z,3.30
2024-01-28T15:04:22.740Z,3.08
2024-01-28T15:08:28.017Z,2.67
2024-01-28T15:12:32.145Z,3.15
2024-01-28T15:16:34.805Z,2.58
2024-01-28T15:20:37.462Z,2.53
2024-01-28T15:24:40.561Z,2.92
2024-01-28T15:28:44.624Z,3.83
2024-01-28T15:32:48.565Z,3.03
2024-01-28T15:36:51.585Z,4.20
2024-01-28T15:40:54.370Z,3.45
2024-01-28T15:44:58.413Z,3.80
2024-01-28T15:49:01.318Z,4.68
2024-01-28T15:53:04.361Z,6.85
2024-01-28T15:57:07.202Z,15.65
2024-01-28T16:01:11.526Z,7.03
2024-01-28T16:05:14.695Z,7.43
2024-01-28T16:09:17.876Z,5.40
2024-01-28T16:13:20.584Z,4.68
2024-01-28T16:17:25.892Z,3.88
2024-01-28T16:21:28.605Z,4.50
2024-01-28T16:25:32.074Z,4.53
2024-01-28T16:29:34.915Z,4.95
2024-01-28T16:33:39.093Z,4.70
2024-01-28T16:37:41.914Z,4.80
2024-01-28T16:41:45.037Z,4.80
2024-01-28T16:45:47.823Z,5.00
2024-01-28T16:49:52.060Z,5.13
2024-01-28T16:53:54.868Z,4.95
2024-01-28T16:57:57.627Z,6.88
2024-01-28T17:02:00.416Z,5.72
2024-01-28T17:06:04.943Z,6.63
2024-01-28T17:10:08.420Z,7.15
2024-01-28T17:14:11.358Z,6.05
2024-01-28T17:18:14.533Z,6.55
2024-01-28T17:22:18.724Z,7.50
2024-01-28T17:26:21.562Z,8.30
2024-01-28T17:30:24.314Z,6.68
2024-01-28T17:34:27.078Z,7.68
2024-01-28T17:38:32.149Z,7.07
2024-01-28T17:42:35.322Z,6.82
2024-01-28T17:46:38.288Z,8.15
2024-01-28T17:50:43.208Z,5.25
2024-01-28T17:54:47.302Z,6.30
2024-01-28T17:58:50.159Z,7.93
2024-01-28T18:02:54.550Z,8.05
2024-01-28T18:06:57.396Z,8.13
2024-01-28T18:11:03.992Z,8.45
2024-01-28T18:15:08.717Z,7.65
2024-01-28T18:19:11.504Z,7.35
2024-01-28T18:23:15.693Z,5.75
2024-01-28T18:27:19.788Z,9.60
2024-01-28T18:31:22.888Z,8.95
2024-01-28T18:35:29.012Z,7.90
2024-01-28T18:39:32.454Z,5.65
2024-01-28T18:43:36.737Z,5.78
2024-01-28T18:47:39.441Z,9.40
2024-01-28T18:51:42.141Z,9.38
2024-01-28T18:55:45.449Z,11.15
2024-01-28T18:59:49.515Z,8.23
2024-01-28T19:03:53.302Z,9.50
2024-01-28T19:07:56.091Z,9.82
2024-01-28T19:12:00.958Z,10.02
2024-01-28T19:16:05.695Z,9.35
2024-01-28T19:20:10.487Z,10.63
2024-01-28T19:24:13.624Z,14.60
2024-01-28T19:28:16.392Z,14.48
2024-01-28T19:32:20.533Z,15.63
2024-01-28T19:36:23.392Z,13.98
2024-01-28T19:40:26.146Z,15.07
2024-01-28T19:44:28.895Z,16.85
2024-01-28T19:48:33.101Z,19.95
2024-01-28T19:52:35.977Z,19.80
2024-01-28T19:56:38.672Z,16.73
2024-01-28T20:00:41.378Z,23.67
2024-01-28T20:04:45.521Z,20.58
2024-01-28T20:08:48.229Z,19.70
2024-01-28T20:12:51.317Z,21.05
2024-01-28T20:16:55.377Z,19.38
2024-01-28T20:20:59.795Z,22.08
2024-01-28T20:25:02.667Z,18.75
2024-01-28T20:29:05.398Z,17.90
2024-01-28T20:33:08.202Z,18.60
2024-01-28T20:37:13.025Z,15.65
2024-01-28T20:41:15.743Z,15.13
2024-01-28T20:45:18.734Z,15.20
2024-01-28T20:49:21.556Z,16.05
2024-01-28T20:53:26.416Z,15.80
2024-01-28T20:57:29.254Z,13.35
2024-01-28T21:01:32.107Z,12.70
2024-01-28T21:05:34.864Z,15.52
2024-01-28T21:09:40.324Z,16.50
2024-01-28T21:13:43.188Z,13.10
2024-01-28T21:17:45.977Z,12.48
2024-01-28T21:21:53.135Z,14.60
2024-01-28T21:25:57.574Z,13.35
2024-01-28T21:30:00.300Z,12.13
2024-01-28T21:34:03.870Z,12.57
2024-01-28T21:38:06.622Z,10.73
2024-01-28T21:42:10.908Z,11.95
2024-01-28T21:46:14.931Z,7.72
2024-01-28T21:50:17.975Z,8.98
2024-01-28T21:54:20.704Z,8.95
2024-01-28T21:58:24.701Z,17.60
2024-01-28T22:02:27.356Z,10.75
2024-01-28T22:06:30.109Z,7.70
2024-01-28T22:10:33.022Z,7.13
2024-01-28T22:14:37.453Z,8.73
2024-01-28T22:18:40.178Z,6.15
2024-01-28T22:22:42.934Z,7.40
2024-01-28T22:26:45.620Z,8.68
2024-01-28T22:30:50.540Z,8.02
2024-01-28T22:34:54.196Z,6.18
2024-01-28T22:38:56.941Z,5.80
2024-01-28T22:42:59.907Z,5.32
2024-01-28T22:47:04.857Z,5.82
2024-01-28T22:51:07.557Z,5.15
2024-01-28T22:55:10.442Z,4.13
2024-01-28T22:59:13.240Z,3.25
2024-01-28T23:03:18.639Z,5.20
2024-01-28T23:07:21.453Z,3.13
2024-01-28T23:11:24.121Z,3.17
2024-01-28T23:15:26.860Z,3.08
2024-01-28T23:19:31.038Z,3.83
2024-01-28T23:23:35.534Z,2.95
2024-01-28T23:27:38.311Z,2.95
2024-01-28T23:31:42.056Z,2.80
2024-01-28T23:35:46.596Z,2.75
2024-01-28T23:39:50.149Z,2.92
2024-01-28T23:43:53.413Z,2.70
2024-01-28T23:47:56.172Z,3.42
2024-01-28T23:52:01.961Z,4.68
2024-01-28T23:56:05.002Z,4.47
